Time;durP1;ratioP1;P1;durP2;ratioP2;P2;SDS_P1;SDS_P2;PMS_P1;PMS_P2;Temp;Humidity;BMP_temperature;BMP_pressure;BME280_temperature;BME280_humidity;BME280_pressure;Samples;Min_cycle;Max_cycle;Signal;HPM_P1;HPM_P2
2023/08/15 00:04:57;;;;;;;11.10;4.40;;;22.70;99.90;;;;;;21165247;28;20228;-64
2023/08/15 00:14:59;;;;;;;10.67;4.30;;;22.70;99.90;;;;;;21164914;28;20763;-64
2023/08/15 00:25:01;;;;;;;7.03;4.57;;;22.60;99.90;;;;;;21163869;28;20202;-64
2023/08/15 00:35:04;;;;;;;10.50;4.43;;;22.50;99.90;;;;;;21163227;28;20236;-64
2023/08/15 00:45:06;;;;;;;7.70;4.60;;;22.50;99.90;;;;;;21163190;28;20206;-68
2023/08/15 00:55:09;;;;;;;13.10;4.73;;;22.40;99.90;;;;;;21163428;28;20295;-65
2023/08/15 01:05:16;;;;;;;7.80;4.73;;;22.30;99.90;;;;;;21162056;28;20222;-68
2023/08/15 01:15:26;;;;;;;10.70;4.73;;;22.30;99.90;;;;;;21177710;28;20282;-70
2023/08/15 01:25:31;;;;;;;7.97;4.80;;;22.20;99.90;;;;;;21178218;28;20232;-69
2023/08/15 01:35:40;;;;;;;8.87;5.17;;;22.10;99.90;;;;;;21177009;28;20292;-71
2023/08/15 01:45:42;;;;;;;8.77;4.90;;;22.10;99.90;;;;;;21176546;28;20634;-70
2023/08/15 01:55:44;;;;;;;10.07;4.90;;;21.90;99.90;;;;;;21157697;28;20725;-70
2023/08/15 02:05:45;;;;;;;10.57;5.00;;;21.90;99.90;;;;;;21174494;28;20254;-69
2023/08/15 02:15:47;;;;;;;9.77;4.93;;;21.90;99.90;;;;;;21173698;28;20628;-71
2023/08/15 02:25:49;;;;;;;8.17;4.90;;;21.80;99.90;;;;;;21172183;28;20296;-71
2023/08/15 02:35:52;;;;;;;10.33;4.73;;;21.80;99.90;;;;;;21172172;28;20696;-67
2023/08/15 02:45:54;;;;;;;5.17;4.63;;;21.80;99.90;;;;;;21171585;28;20201;-69
2023/08/15 02:55:56;;;;;;;12.57;5.10;;;21.80;99.90;;;;;;21172060;28;20324;-72
2023/08/15 03:06:02;;;;;;;9.40;5.07;;;21.60;99.90;;;;;;21169792;28;20260;-73
2023/08/15 03:16:03;;;;;;;11.87;4.70;;;21.50;99.90;;;;;;21169048;28;20325;-72
2023/08/15 03:26:06;;;;;;;8.83;5.10;;;21.50;99.90;;;;;;21168610;28;20289;-62
2023/08/15 03:36:07;;;;;;;12.27;5.10;;;21.40;99.90;;;;;;21166859;28;20333;-63
2023/08/15 03:46:09;;;;;;;14.33;5.40;;;21.30;99.90;;;;;;21166664;28;20722;-63
2023/08/15 03:56:11;;;;;;;6.90;4.53;;;21.30;99.90;;;;;;21166188;28;20590;-64
2023/08/15 04:06:13;;;;;;;10.07;6.10;;;21.20;99.90;;;;;;21165349;28;20229;-67
2023/08/15 04:16:15;;;;;;;10.93;6.73;;;21.20;99.90;;;;;;21164247;28;20701;-68
2023/08/15 04:26:17;;;;;;;30.20;10.10;;;21.30;99.90;;;;;;21164236;28;20206;-71
2023/08/15 04:36:19;;;;;;;21.37;13.77;;;21.20;99.90;;;;;;21163359;28;20261;-68
2023/08/15 04:46:20;;;;;;;15.30;8.67;;;21.20;99.90;;;;;;21162381;28;20210;-65
2023/08/15 04:56:22;;;;;;;16.43;7.80;;;21.30;99.90;;;;;;21162903;28;20232;-71
2023/08/15 05:06:24;;;;;;;15.57;8.20;;;21.40;99.90;;;;;;21161860;28;20231;-70
2023/08/15 05:16:26;;;;;;;8.73;7.20;;;21.50;99.90;;;;;;21161966;28;20320;-67
2023/08/15 05:26:28;;;;;;;9.67;7.20;;;21.50;99.90;;;;;;21162103;28;20289;-64
2023/08/15 05:36:29;;;;;;;13.33;8.50;;;21.50;99.90;;;;;;21161750;28;20240;-66
2023/08/15 05:46:31;;;;;;;12.27;8.33;;;21.50;99.90;;;;;;21160521;28;20665;-67
2023/08/15 05:56:33;;;;;;;10.07;8.60;;;21.50;99.90;;;;;;21149759;28;20286;-72
2023/08/15 06:06:34;;;;;;;11.93;9.20;;;21.70;99.90;;;;;;21174053;28;20316;-68
2023/08/15 06:16:36;;;;;;;8.17;7.07;;;21.90;99.90;;;;;;21181460;27;20275;-70
2023/08/15 06:26:39;;;;;;;9.07;8.00;;;22.10;99.90;;;;;;21222193;27;20204;-70
2023/08/15 06:36:40;;;;;;;9.93;8.17;;;22.20;99.90;;;;;;21211532;27;20321;-71
2023/08/15 06:46:42;;;;;;;12.90;6.50;;;22.50;99.90;;;;;;21171566;28;20210;-70
2023/08/15 06:56:44;;;;;;;11.47;6.47;;;22.60;99.90;;;;;;21241926;27;20233;-70
2023/08/15 07:06:46;;;;;;;8.70;5.50;;;22.80;99.90;;;;;;21253783;27;20232;-75
2023/08/15 07:16:48;;;;;;;8.43;6.60;;;22.90;99.90;;;;;;21253682;27;20665;-72
2023/08/15 07:26:50;;;;;;;7.37;6.30;;;23.00;99.90;;;;;;21253243;27;20211;-72
2023/08/15 07:36:52;;;;;;;8.97;6.00;;;23.40;99.90;;;;;;21252429;27;20239;-72
2023/08/15 07:46:53;;;;;;;6.97;6.10;;;23.50;99.90;;;;;;21251993;27;20292;-72
2023/08/15 07:56:55;;;;;;;7.57;5.83;;;23.80;99.90;;;;;;21251555;27;20718;-73
2023/08/15 08:06:57;;;;;;;8.00;5.27;;;24.10;99.90;;;;;;21251409;27;20711;-72
2023/08/15 08:16:59;;;;;;;10.83;6.43;;;24.30;99.90;;;;;;21248588;27;20225;-72
2023/08/15 08:27:00;;;;;;;6.57;5.10;;;24.50;99.90;;;;;;21249713;27;20205;-72
2023/08/15 08:37:02;;;;;;;6.77;5.00;;;24.80;99.90;;;;;;21248295;27;20233;-71
2023/08/15 08:47:06;;;;;;;6.17;4.30;;;25.00;99.90;;;;;;21247948;28;20288;-72
2023/08/15 08:57:08;;;;;;;8.23;3.63;;;25.30;99.90;;;;;;21247773;28;20232;-71
2023/08/15 09:07:10;;;;;;;7.03;2.90;;;25.60;99.90;;;;;;21247688;28;20422;-71
2023/08/15 09:17:12;;;;;;;3.08;2.75;;;25.90;99.90;;;;;;21247441;28;20260;-72
2023/08/15 09:27:14;;;;;;;3.75;3.17;;;26.10;99.90;;;;;;21247523;27;20268;-71
2023/08/15 09:37:16;;;;;;;3.72;3.20;;;26.40;99.90;;;;;;21263161;27;20229;-72
2023/08/15 09:47:19;;;;;;;6.68;3.00;;;26.50;99.90;;;;;;21261568;27;20200;-72
2023/08/15 09:57:21;;;;;;;6.43;3.78;;;26.50;99.60;;;;;;21261223;27;20229;-72
2023/08/15 10:07:26;;;;;;;4.75;3.30;;;26.50;99.30;;;;;;21233946;27;20771;-72
2023/08/15 10:17:29;;;;;;;5.97;4.35;;;26.60;98.60;;;;;;21176777;28;20324;-71
2023/08/15 10:27:31;;;;;;;4.35;3.60;;;26.60;98.10;;;;;;21172798;28;20267;-72
2023/08/15 10:37:37;;;;;;;7.43;3.22;;;26.50;98.10;;;;;;21175155;28;20237;-72
2023/08/15 10:47:42;;;;;;;5.43;3.80;;;26.50;98.00;;;;;;21178309;28;20210;-71
2023/08/15 10:57:44;;;;;;;4.55;4.15;;;26.50;97.90;;;;;;21171357;28;20226;-71
2023/08/15 11:07:45;;;;;;;5.80;3.33;;;26.50;97.80;;;;;;21170275;28;20234;-71
2023/08/15 11:17:47;;;;;;;5.97;3.60;;;26.50;97.90;;;;;;21169038;28;20273;-71
2023/08/15 11:27:50;;;;;;;4.57;2.83;;;26.60;98.10;;;;;;21168700;28;20545;-72
2023/08/15 11:37:52;;;;;;;6.80;3.83;;;26.70;98.10;;;;;;21167357;28;20325;-71
2023/08/15 11:47:56;;;;;;;8.60;3.83;;;26.80;97.70;;;;;;21166984;28;20201;-71
2023/08/15 11:57:58;;;;;;;5.93;4.07;;;27.10;97.70;;;;;;21165929;28;20233;-71
2023/08/15 12:07:59;;;;;;;5.28;4.03;;;27.40;97.50;;;;;;21164838;28;20233;-71
2023/08/15 12:18:01;;;;;;;8.07;3.72;;;27.30;97.40;;;;;;21164959;28;20610;-72
2023/08/15 12:28:04;;;;;;;8.02;4.20;;;27.50;97.10;;;;;;21164074;28;20208;-72
2023/08/15 12:38:06;;;;;;;6.65;3.88;;;28.10;96.30;;;;;;21164415;28;20237;-72
2023/08/15 12:48:08;;;;;;;4.85;3.60;;;28.40;95.60;;;;;;21163025;28;20296;-72
2023/08/15 12:58:09;;;;;;;5.93;4.15;;;28.60;93.20;;;;;;21162366;28;20233;-72
2023/08/15 13:08:11;;;;;;;6.57;4.30;;;28.60;91.00;;;;;;21173354;28;20562;-72
2023/08/15 13:18:13;;;;;;;5.97;4.20;;;28.70;91.10;;;;;;21179121;28;20692;-72
2023/08/15 13:28:15;;;;;;;9.20;4.25;;;28.80;90.70;;;;;;21178488;28;20750;-72
2023/08/15 13:38:17;;;;;;;10.90;4.28;;;28.80;90.60;;;;;;21177268;28;20325;-71
2023/08/15 13:48:18;;;;;;;7.22;3.70;;;28.90;89.50;;;;;;21176426;28;20578;-71
2023/08/15 13:58:21;;;;;;;6.15;3.20;;;29.00;85.90;;;;;;21175804;28;20768;-72
2023/08/15 14:08:22;;;;;;;4.57;3.20;;;28.90;83.40;;;;;;21173833;28;20321;-72
2023/08/15 14:18:24;;;;;;;7.88;3.90;;;30.10;77.30;;;;;;21173941;28;20241;-71
2023/08/15 14:28:28;;;;;;;9.35;4.28;;;30.60;74.10;;;;;;21171789;28;20201;-73
2023/08/15 14:38:30;;;;;;;11.40;3.60;;;30.40;72.90;;;;;;21172392;28;20708;-72
2023/08/15 14:48:32;;;;;;;7.32;4.00;;;31.50;69.60;;;;;;21170429;28;20205;-72
2023/08/15 14:58:34;;;;;;;12.32;3.38;;;33.00;68.80;;;;;;21170776;28;20261;-72
2023/08/15 15:08:35;;;;;;;6.50;3.60;;;33.30;65.80;;;;;;21170282;28;20234;-72
2023/08/15 15:18:37;;;;;;;10.80;3.70;;;34.90;62.30;;;;;;21169160;28;20229;-72
2023/08/15 15:28:39;;;;;;;4.28;3.17;;;31.90;69.10;;;;;;21167423;28;20206;-72
2023/08/15 15:38:41;;;;;;;9.32;4.03;;;31.00;72.30;;;;;;21167878;28;20269;-72
2023/08/15 15:48:43;;;;;;;6.15;3.60;;;30.10;76.40;;;;;;21166732;28;20212;-72
2023/08/15 15:58:45;;;;;;;7.20;4.03;;;29.70;78.70;;;;;;21166387;28;20234;-73
2023/08/15 16:08:47;;;;;;;4.40;3.50;;;29.40;81.40;;;;;;21166190;28;20237;-71
2023/08/15 16:18:48;;;;;;;4.55;3.17;;;29.40;83.10;;;;;;21164403;28;20672;-72
2023/08/15 16:28:50;;;;;;;4.30;3.42;;;28.90;84.40;;;;;;21163806;28;20201;-71
2023/08/15 16:38:52;;;;;;;8.55;4.10;;;28.30;86.00;;;;;;21162887;28;20237;-71
2023/08/15 16:48:54;;;;;;;6.00;3.55;;;27.90;88.90;;;;;;21195888;27;20241;-71
2023/08/15 16:58:55;;;;;;;6.32;3.72;;;27.50;89.60;;;;;;21162355;28;20249;-71
2023/08/15 17:08:57;;;;;;;6.88;3.50;;;27.30;90.50;;;;;;21162234;28;20234;-71
2023/08/15 17:18:59;;;;;;;5.03;3.63;;;27.00;90.60;;;;;;21160430;28;20313;-71
2023/08/15 17:29:01;;;;;;;4.35;3.67;;;26.80;91.30;;;;;;21161344;28;20293;-71
2023/08/15 17:39:02;;;;;;;4.60;3.83;;;26.70;91.90;;;;;;21162089;28;20273;-69
2023/08/15 17:49:04;;;;;;;8.33;4.00;;;26.60;92.50;;;;;;21162416;28;20281;-70
2023/08/15 17:59:06;;;;;;;5.15;3.63;;;26.40;93.10;;;;;;21175558;28;20316;-69
2023/08/15 18:09:09;;;;;;;6.07;4.35;;;26.40;93.70;;;;;;21174940;28;20233;-69
2023/08/15 18:19:11;;;;;;;5.90;3.83;;;26.20;94.20;;;;;;21123063;28;20244;-71
2023/08/15 18:29:12;;;;;;;5.97;4.13;;;26.10;94.60;;;;;;21065880;28;20729;-71
2023/08/15 18:39:14;;;;;;;5.37;4.07;;;26.00;95.10;;;;;;21044718;28;20235;-72
2023/08/15 18:49:18;;;;;;;6.73;4.27;;;25.90;95.50;;;;;;21048465;28;20213;-72
2023/08/15 18:59:22;;;;;;;10.07;3.70;;;25.80;96.00;;;;;;21036995;28;20242;-71
2023/08/15 19:09:24;;;;;;;8.23;3.70;;;25.70;96.40;;;;;;21033570;28;20598;-73
2023/08/15 19:19:26;;;;;;;10.10;3.67;;;25.50;96.90;;;;;;21045225;28;20314;-70
2023/08/15 19:29:28;;;;;;;4.00;3.47;;;25.40;97.30;;;;;;21066391;28;20661;-70
2023/08/15 19:39:29;;;;;;;8.83;3.70;;;25.20;97.70;;;;;;21041083;28;20264;-71
2023/08/15 19:49:33;;;;;;;9.57;3.83;;;25.10;98.10;;;;;;21038048;28;20286;-72
2023/08/15 19:59:34;;;;;;;8.57;4.63;;;24.90;98.60;;;;;;21035390;28;20320;-70
2023/08/15 20:09:37;;;;;;;9.37;4.60;;;24.70;99.20;;;;;;21035985;28;20450;-70
2023/08/15 20:19:39;;;;;;;5.13;4.17;;;25.00;99.60;;;;;;21032453;28;20319;-70
2023/08/15 20:29:41;;;;;;;7.60;4.73;;;24.60;99.90;;;;;;21034845;28;20203;-70
2023/08/15 20:39:43;;;;;;;8.53;4.37;;;24.40;99.90;;;;;;21035047;28;20288;-71
2023/08/15 20:49:46;;;;;;;7.77;4.30;;;24.30;99.90;;;;;;21032067;28;20300;-71
2023/08/15 20:59:48;;;;;;;8.77;4.43;;;24.20;99.90;;;;;;21030472;28;20231;-71
2023/08/15 21:09:49;;;;;;;6.47;4.30;;;24.10;99.90;;;;;;21034874;28;20326;-71
2023/08/15 21:19:51;;;;;;;10.40;4.87;;;23.90;99.90;;;;;;21030319;28;20692;-73
2023/08/15 21:29:53;;;;;;;11.17;4.50;;;23.70;99.90;;;;;;21043153;28;20302;-70
2023/08/15 21:39:54;;;;;;;7.47;4.97;;;23.60;99.90;;;;;;21051529;28;20245;-70
2023/08/15 21:49:56;;;;;;;5.83;4.47;;;23.40;99.90;;;;;;21044734;28;20635;-73
2023/08/15 21:59:58;;;;;;;9.13;4.63;;;23.20;99.90;;;;;;21042919;28;20234;-72
2023/08/15 22:09:59;;;;;;;5.97;4.50;;;23.10;99.90;;;;;;21007327;28;20242;-72
2023/08/15 22:20:05;;;;;;;10.87;4.80;;;23.10;99.90;;;;;;21006372;28;20780;-71
2023/08/15 22:30:07;;;;;;;13.33;4.37;;;22.90;99.90;;;;;;21079077;28;20230;-70
2023/08/15 22:40:10;;;;;;;8.17;4.53;;;22.90;99.90;;;;;;21064300;28;20238;-70
2023/08/15 22:50:12;;;;;;;5.47;4.20;;;22.70;99.90;;;;;;21011225;28;20298;-70
2023/08/15 23:00:14;;;;;;;7.80;4.60;;;22.70;99.90;;;;;;21002836;28;20242;-70
2023/08/15 23:10:16;;;;;;;6.67;4.67;;;22.50;99.90;;;;;;21002892;28;20235;-70
2023/08/15 23:20:18;;;;;;;8.43;4.70;;;22.30;99.90;;;;;;21000879;28;20269;-70
2023/08/15 23:30:19;;;;;;;9.53;4.90;;;22.20;99.90;;;;;;21075739;28;20195;-69
2023/08/15 23:40:22;;;;;;;7.53;4.77;;;22.10;99.90;;;;;;21083791;28;20248;-71
2023/08/15 23:50:23;;;;;;;8.13;5.03;;;22.10;99.90;;;;;;21082241;28;20572;-70
